createdAt,value
2019-04-24T00:00:11.621Z,74.1
2019-04-24T00:02:14.577Z,74.4
2019-04-24T00:03:50.532Z,74.3
2019-04-24T00:06:07.624Z,73.4
2019-04-24T00:08:08.070Z,73.9
2019-04-24T00:10:01.834Z,73.9
2019-04-24T00:12:02.984Z,74.1
2019-04-24T00:15:58.851Z,74.0
2019-04-24T00:18:12.405Z,74.3
2019-04-24T00:22:03.509Z,74.7
2019-04-24T00:24:08.992Z,74.4
2019-04-24T00:25:58.487Z,74.4
2019-04-24T00:32:02.128Z,74.1
2019-04-24T00:34:06.040Z,73.8
2019-04-24T00:36:09.786Z,74.0
2019-04-24T00:38:06.952Z,74.2
2019-04-24T00:42:01.752Z,74.7
2019-04-24T00:43:54.675Z,74.5
2019-04-24T00:45:48.109Z,74.6
2019-04-24T00:48:05.611Z,74.6
2019-04-24T00:49:42.744Z,74.6
2019-04-24T00:54:00.729Z,74.2
2019-04-24T00:56:03.263Z,74.2
2019-04-24T00:58:03.082Z,74.2
2019-04-24T00:59:49.840Z,74.6
2019-04-24T01:01:53.052Z,74.4
2019-04-24T01:04:13.245Z,74.4
2019-04-24T01:06:01.334Z,74.7
2019-04-24T01:10:11.349Z,75.1
2019-04-24T01:11:50.635Z,75.7
2019-04-24T01:14:08.721Z,75.4
2019-04-24T01:17:51.915Z,75.7
2019-04-24T01:19:56.082Z,75.5
2019-04-24T01:22:09.326Z,75.2
2019-04-24T01:23:59.327Z,75.2
2019-04-24T01:25:59.427Z,75.6
2019-04-24T01:28:02.062Z,75.9
2019-04-24T01:30:23.170Z,76.0
2019-04-24T01:31:41.969Z,75.9
2019-04-24T01:33:54.986Z,75.9
2019-04-24T01:36:08.534Z,75.8
2019-04-24T01:38:03.629Z,76.0
2019-04-24T01:39:55.356Z,76.3
2019-04-24T01:41:57.023Z,76.3
2019-04-24T01:43:47.937Z,76.5
2019-04-24T01:46:06.181Z,76.5
2019-04-24T01:48:14.258Z,76.7
2019-04-24T01:49:58.963Z,76.7
2019-04-24T01:52:15.839Z,76.8
2019-04-24T01:54:02.440Z,76.8
2019-04-24T01:56:02.546Z,76.6
2019-04-24T01:57:56.212Z,76.8
2019-04-24T01:59:46.695Z,76.7
2019-04-24T02:02:00.588Z,76.5
2019-04-24T02:03:55.779Z,76.8
2019-04-24T02:05:51.946Z,77.4
2019-04-24T02:13:57.728Z,77.8
2019-04-24T02:15:41.637Z,78.5
2019-04-24T02:17:49.424Z,78.2
2019-04-24T02:20:14.616Z,78.6
2019-04-24T02:23:46.535Z,78.9
2019-04-24T02:28:04.419Z,79.3
2019-04-24T02:30:02.242Z,79.5
2019-04-24T02:34:04.419Z,79.6
2019-04-24T02:36:29.638Z,79.9
2019-04-24T02:38:13.429Z,79.7
2019-04-24T02:39:57.660Z,79.9
2019-04-24T02:41:57.141Z,80.0
2019-04-24T02:44:20.311Z,80.4
2019-04-24T02:48:09.518Z,80.5
2019-04-24T02:52:00.201Z,80.8
2019-04-24T02:54:16.329Z,80.9
2019-04-24T02:56:16.333Z,81.5
2019-04-24T02:57:55.747Z,81.0
2019-04-24T03:02:04.659Z,81.4
2019-04-24T03:06:05.854Z,81.4
2019-04-24T03:08:42.670Z,81.9
2019-04-24T03:12:33.899Z,82.2
2019-04-24T03:13:58.710Z,82.4
2019-04-24T03:16:06.183Z,82.4
2019-04-24T03:18:16.837Z,82.9
2019-04-24T03:20:02.500Z,83.0
2019-04-24T03:22:12.867Z,83.4
2019-04-24T03:44:30.631Z,84.3
2019-04-24T03:48:16.128Z,83.7
2019-04-24T03:50:12.968Z,84.1
2019-04-24T03:54:13.755Z,83.4
2019-04-24T03:56:12.782Z,84.1
2019-04-24T03:58:15.864Z,84.6
2019-04-24T04:00:14.290Z,84.9
2019-04-24T04:04:11.202Z,84.3
2019-04-24T04:05:46.667Z,84.7
2019-04-24T04:10:03.588Z,86.0
2019-04-24T04:13:58.225Z,86.0
2019-04-24T04:18:11.606Z,86.6
2019-04-24T04:20:06.954Z,87.0
2019-04-24T04:21:53.853Z,87.3
2019-04-24T04:24:25.118Z,87.2
2019-04-24T04:26:07.230Z,87.3
2019-04-24T04:27:52.570Z,88.0
2019-04-24T04:30:08.359Z,88.0
2019-04-24T04:36:05.733Z,88.4
2019-04-24T04:38:08.283Z,88.3
2019-04-24T04:40:08.382Z,87.4
2019-04-24T04:41:57.945Z,87.3
2019-04-24T04:44:14.677Z,87.2
2019-04-24T04:46:23.651Z,87.1
2019-04-24T04:47:46.509Z,87.0
2019-04-24T04:51:53.717Z,87.1
2019-04-24T04:54:05.333Z,86.6
2019-04-24T04:58:14.174Z,86.6
2019-04-24T05:00:00.367Z,86.4
2019-04-24T05:01:49.020Z,86.2
2019-04-24T05:03:48.262Z,86.5
2019-04-24T05:12:03.729Z,84.7
2019-04-24T05:16:15.358Z,83.6
2019-04-24T05:19:38.226Z,82.7
2019-04-24T05:24:08.955Z,81.8
2019-04-24T05:25:57.950Z,81.5
2019-04-24T05:27:41.327Z,80.8
2019-04-24T05:32:01.422Z,78.9
2019-04-24T05:33:56.419Z,79.6
2019-04-24T05:35:52.953Z,78.9
2019-04-24T05:37:56.138Z,77.3
2019-04-24T05:39:57.776Z,66
2019-04-24T05:41:54.901Z,65
2019-04-24T05:46:03.955Z,65
2019-04-24T05:47:51.840Z,65
2019-04-24T05:49:58.657Z,66
2019-04-24T05:51:51.707Z,66
2019-04-24T05:53:58.234Z,66
2019-04-24T05:56:01.890Z,66
2019-04-24T05:58:02.726Z,66
2019-04-24T05:59:57.194Z,65
2019-04-24T06:02:18.682Z,65
2019-04-24T06:04:04.665Z,65
2019-04-24T06:07:54.715Z,65
2019-04-24T06:13:50.112Z,65
2019-04-24T06:15:58.490Z,65
2019-04-24T06:18:08.699Z,65
2019-04-24T06:21:46.399Z,64
2019-04-24T06:26:14.034Z,64
2019-04-24T06:27:54.063Z,63
2019-04-24T06:32:04.641Z,63
2019-04-24T06:36:05.822Z,62
2019-04-24T06:39:55.456Z,62
2019-04-24T06:41:49.512Z,62
2019-04-24T06:43:44.780Z,62
2019-04-24T06:45:43.465Z,62
2019-04-24T06:48:05.467Z,62
2019-04-24T06:53:52.641Z,62
2019-04-24T06:55:59.416Z,61
2019-04-24T06:57:54.432Z,61
2019-04-24T07:00:08.769Z,60
2019-04-24T07:01:46.706Z,60
2019-04-24T07:04:09.426Z,60
2019-04-24T07:06:07.886Z,60
2019-04-24T07:09:50.515Z,60
2019-04-24T07:11:57.876Z,60
2019-04-24T07:19:48.253Z,59
2019-04-24T07:24:00.501Z,58
2019-04-24T07:26:06.413Z,58
2019-04-24T07:27:50.388Z,58
2019-04-24T07:31:50.538Z,58
2019-04-24T07:34:08.120Z,58
2019-04-24T07:38:00.308Z,58
2019-04-24T07:39:52.645Z,58
2019-04-24T07:42:04.249Z,58
2019-04-24T07:47:44.195Z,56
2019-04-24T07:56:03.465Z,56
2019-04-24T07:57:55.647Z,57
2019-04-24T08:00:09.227Z,56
2019-04-24T08:04:05.652Z,55
2019-04-24T08:05:53.263Z,55
2019-04-24T08:07:43.759Z,55
2019-04-24T08:12:07.178Z,54
2019-04-24T08:14:08.067Z,54
2019-04-24T08:15:44.611Z,54
2019-04-24T08:22:05.430Z,53
2019-04-24T08:24:00.202Z,53
2019-04-24T08:27:55.210Z,52
2019-04-24T08:30:03.335Z,52
2019-04-24T08:31:59.575Z,52
2019-04-24T08:34:17.817Z,52
2019-04-24T08:35:59.652Z,51
2019-04-24T08:38:02.006Z,51
2019-04-24T08:39:47.620Z,50
2019-04-24T08:42:10.602Z,50
2019-04-24T08:45:52.766Z,50
2019-04-24T08:47:58.889Z,50
2019-04-24T08:52:08.630Z,50
2019-04-24T08:54:00.472Z,49
2019-04-24T08:55:55.915Z,49
2019-04-24T09:01:48.395Z,49
2019-04-24T09:04:04.615Z,48
2019-04-24T09:05:55.679Z,48
2019-04-24T09:08:10.485Z,48
2019-04-24T09:11:59.176Z,48
2019-04-24T09:13:52.225Z,48
2019-04-24T09:18:02.953Z,47
2019-04-24T09:20:07.557Z,47
2019-04-24T09:26:25.352Z,46
2019-04-24T09:27:55.927Z,45
2019-04-24T09:31:55.624Z,45
2019-04-24T09:33:59.250Z,44
2019-04-24T09:36:18.732Z,45
2019-04-24T09:40:27.260Z,44
2019-04-24T09:42:10.837Z,44
2019-04-24T09:45:55.481Z,44
2019-04-24T09:48:08.275Z,44
2019-04-24T09:52:00.650Z,43
2019-04-24T09:53:57.167Z,43
2019-04-24T09:55:49.230Z,43
2019-04-24T10:04:01.530Z,41
2019-04-24T10:05:53.802Z,41
2019-04-24T10:07:56.257Z,40
2019-04-24T10:12:17.610Z,41
2019-04-24T10:13:57.897Z,41
2019-04-24T10:15:51.540Z,41
2019-04-24T10:18:00.193Z,41
2019-04-24T10:21:53.094Z,40
2019-04-24T10:25:51.678Z,40
2019-04-24T10:28:01.889Z,40
2019-04-24T10:29:48.604Z,39
2019-04-24T10:35:49.342Z,40
2019-04-24T10:41:59.663Z,39
2019-04-24T10:43:52.082Z,39
2019-04-24T10:45:51.305Z,39
2019-04-24T10:48:01.402Z,38
2019-04-24T10:49:53.976Z,38
2019-04-24T10:52:02.943Z,38
2019-04-24T10:53:50.665Z,38
2019-04-24T10:56:08.074Z,38
2019-04-24T10:57:59.523Z,38
2019-04-24T10:59:58.165Z,38
2019-04-24T11:02:02.165Z,37
2019-04-24T11:03:59.066Z,37
2019-04-24T11:05:55.844Z,37
2019-04-24T11:08:09.438Z,37
2019-04-24T11:09:58.702Z,37
2019-04-24T11:11:55.966Z,37
2019-04-24T11:13:48.091Z,37
2019-04-24T11:17:59.876Z,36
2019-04-24T11:19:47.469Z,36
2019-04-24T11:24:04.164Z,36
2019-04-24T11:25:56.414Z,36
2019-04-24T11:27:53.924Z,36
2019-04-24T11:29:53.407Z,36
2019-04-24T11:31:58.791Z,36
2019-04-24T11:34:14.629Z,37
2019-04-24T11:36:02.050Z,36
2019-04-24T11:41:56.477Z,34
2019-04-24T11:44:05.515Z,35
2019-04-24T11:45:47.182Z,35
2019-04-24T11:50:03.380Z,35
2019-04-24T11:51:51.360Z,35
2019-04-24T11:55:54.792Z,35
2019-04-24T11:59:37.828Z,35
2019-04-24T12:02:05.036Z,33
2019-04-24T12:03:56.013Z,33
2019-04-24T12:10:00.953Z,34
2019-04-24T12:11:53.422Z,34
2019-04-24T12:13:58.271Z,33
2019-04-24T12:17:58.068Z,33
2019-04-24T12:19:56.323Z,33
2019-04-24T12:26:02.383Z,33
2019-04-24T12:27:58.499Z,32
2019-04-24T12:29:55.639Z,32
2019-04-24T12:31:58.978Z,33
2019-04-24T12:33:54.406Z,33
2019-04-24T12:35:42.325Z,32
2019-04-24T12:37:57.425Z,32
2019-04-24T12:39:55.557Z,33
2019-04-24T12:41:52.905Z,32
2019-04-24T12:44:01.291Z,32
2019-04-24T12:45:55.312Z,32
2019-04-24T12:47:52.577Z,32
2019-04-24T12:51:47.464Z,30
2019-04-24T12:54:05.442Z,29
2019-04-24T12:55:57.344Z,29
2019-04-24T12:58:03.040Z,30
2019-04-24T12:59:47.683Z,29
2019-04-24T13:01:57.150Z,30
2019-04-24T13:04:11.174Z,30
2019-04-24T13:05:48.343Z,30
2019-04-24T13:08:04.432Z,30
2019-04-24T13:10:05.185Z,30
2019-04-24T13:14:03.809Z,29
2019-04-24T13:15:57.980Z,30
2019-04-24T13:18:08.181Z,30
2019-04-24T13:21:09.064Z,30
2019-04-24T13:23:45.404Z,31
2019-04-24T13:28:19.953Z,29
2019-04-24T13:30:02.237Z,29
2019-04-24T13:32:04.580Z,29
2019-04-24T13:33:52.004Z,29
2019-04-24T13:35:54.125Z,28
2019-04-24T13:38:03.204Z,28
2019-04-24T13:39:57.376Z,29
2019-04-24T13:43:59.656Z,29
2019-04-24T13:45:59.506Z,29
2019-04-24T13:47:48.227Z,29
2019-04-24T13:52:02.499Z,28
2019-04-24T13:54:08.632Z,28
2019-04-24T13:58:06.711Z,28
2019-04-24T14:00:13.182Z,28
2019-04-24T14:02:00.985Z,28
2019-04-24T14:05:58.306Z,27
2019-04-24T14:12:45.261Z,27
2019-04-24T14:13:53.796Z,28
2019-04-24T14:16:06.137Z,28
2019-04-24T14:24:07.208Z,28
2019-04-24T14:26:00.505Z,28
2019-04-24T14:28:12.019Z,27
2019-04-24T14:29:54.903Z,27
2019-04-24T14:33:51.575Z,27
2019-04-24T14:35:59.440Z,27
2019-04-24T14:40:06.375Z,27
2019-04-24T14:42:02.677Z,27
2019-04-24T14:44:12.353Z,27
2019-04-24T14:47:43.004Z,27
2019-04-24T14:50:07.934Z,27
2019-04-24T14:54:02.083Z,27
2019-04-24T14:55:58.134Z,27
2019-04-24T14:57:43.559Z,27
2019-04-24T15:06:06.417Z,27
2019-04-24T15:08:02.263Z,27
2019-04-24T15:12:10.356Z,27
2019-04-24T15:14:05.577Z,27
2019-04-24T15:18:01.034Z,27
2019-04-24T15:20:08.966Z,28
2019-04-24T15:21:56.154Z,28
2019-04-24T15:24:16.702Z,28
2019-04-24T15:29:47.383Z,28
2019-04-24T15:32:02.655Z,28
2019-04-24T15:33:52.056Z,28
2019-04-24T15:37:57.104Z,29
2019-04-24T15:41:48.785Z,29
2019-04-24T15:45:56.346Z,29
2019-04-24T15:51:34.749Z,31
2019-04-24T15:52:50.200Z,31
2019-04-24T15:54:50.352Z,31
2019-04-24T15:56:50.567Z,31
2019-04-24T16:02:04.035Z,31
2019-04-24T16:04:03.601Z,31
2019-04-24T16:04:56.944Z,31
2019-04-24T16:06:50.180Z,31
2019-04-24T16:08:50.172Z,31
2019-04-24T16:10:50.198Z,31
2019-04-24T16:12:50.201Z,32
2019-04-24T16:15:58.053Z,32
2019-04-24T16:17:59.173Z,32
2019-04-24T16:19:58.271Z,32
2019-04-24T16:24:34.453Z,32
2019-04-24T16:25:55.551Z,32
2019-04-24T16:28:07.723Z,32
2019-04-24T16:32:20.235Z,32
2019-04-24T16:33:59.568Z,32
2019-04-24T16:38:08.648Z,32
2019-04-24T16:44:01.429Z,32
2019-04-24T16:46:23.313Z,32
2019-04-24T16:52:00.569Z,33
2019-04-24T16:54:03.232Z,33
2019-04-24T16:55:49.478Z,33
2019-04-24T16:58:04.430Z,33
2019-04-24T16:59:59.785Z,33
2019-04-24T17:01:59.067Z,33
2019-04-24T17:08:06.533Z,30.8
2019-04-24T17:10:02.803Z,31.3
2019-04-24T17:12:01.508Z,32.1
2019-04-24T17:14:07.838Z,31.3
2019-04-24T17:17:57.298Z,31.6
2019-04-24T17:19:58.595Z,31.6
2019-04-24T17:23:57.563Z,32.1
2019-04-24T17:26:07.151Z,32.1
2019-04-24T17:28:07.771Z,32.1
2019-04-24T17:30:02.551Z,31.7
2019-04-24T17:36:10.910Z,32.3
2019-04-24T17:36:50.178Z,32.3
2019-04-24T17:38:50.275Z,32.2
2019-04-24T17:40:51.668Z,31.8
2019-04-24T17:44:02.274Z,31.2
2019-04-24T17:46:04.534Z,31.2
2019-04-24T17:48:02.238Z,31.4
2019-04-24T17:50:10.023Z,31.8
2019-04-24T17:51:58.097Z,30.4
2019-04-24T17:55:53.131Z,34
2019-04-24T17:58:52.388Z,33
2019-04-24T18:00:52.669Z,33
2019-04-24T18:02:51.690Z,32
2019-04-24T18:04:51.844Z,32
2019-04-24T18:06:50.110Z,33
2019-04-24T18:08:52.904Z,32
2019-04-24T18:10:51.936Z,32
2019-04-24T18:12:50.031Z,27.9
2019-04-24T18:14:50.049Z,27.9
2019-04-24T18:16:52.987Z,27.5
2019-04-24T18:18:49.982Z,27.4
2019-04-24T18:20:53.361Z,28.0
2019-04-24T18:22:50.383Z,28.0
2019-04-24T18:24:52.615Z,28.4
2019-04-24T18:26:51.795Z,28.4
2019-04-24T18:28:49.841Z,28.2
2019-04-24T18:30:52.897Z,27.9
2019-04-24T18:32:49.977Z,27.9
2019-04-24T18:34:52.315Z,28.0
2019-04-24T18:36:51.932Z,28.0
2019-04-24T18:38:51.681Z,31
2019-04-24T18:40:52.189Z,31
2019-04-24T18:42:53.147Z,31
2019-04-24T18:44:52.055Z,31
2019-04-24T18:46:52.094Z,31
2019-04-24T18:48:50.162Z,31
2019-04-24T18:50:52.082Z,31
2019-04-24T18:52:52.787Z,31
2019-04-24T18:54:49.835Z,31
2019-04-24T18:56:53.119Z,31
2019-04-24T18:58:52.162Z,32
2019-04-24T19:00:52.287Z,32
2019-04-24T19:02:50.353Z,32
2019-04-24T19:04:51.815Z,32
2019-04-24T19:06:49.974Z,32
2019-04-24T19:08:49.945Z,41.2
2019-04-24T19:10:51.868Z,44.7
2019-04-24T19:12:49.824Z,47.5
2019-04-24T19:14:49.969Z,48.4
2019-04-24T19:16:50.159Z,50.4
2019-04-24T19:18:50.236Z,51.1
2019-04-24T19:20:50.282Z,52.0
2019-04-24T19:23:09.338Z,53.1
2019-04-24T19:24:51.582Z,54.5
2019-04-24T19:26:52.059Z,54.9
2019-04-24T19:28:51.964Z,55.1
2019-04-24T19:30:49.969Z,55.9
2019-04-24T19:32:51.438Z,56.7
2019-04-24T19:34:52.049Z,57.5
2019-04-24T19:36:50.298Z,57.9
2019-04-24T19:38:52.256Z,58.4
2019-04-24T19:40:52.115Z,58.7
2019-04-24T19:42:51.981Z,58.9
2019-04-24T19:44:51.978Z,59.2
2019-04-24T19:46:50.218Z,59.5
2019-04-24T19:48:52.095Z,60.0
2019-04-24T19:50:51.982Z,60.2
2019-04-24T19:52:51.877Z,61.5
2019-04-24T19:54:49.990Z,62.2
2019-04-24T19:56:50.130Z,62.2
2019-04-24T19:58:50.177Z,62.9
2019-04-24T20:00:50.175Z,63.4
2019-04-24T20:02:50.354Z,63.9
2019-04-24T20:04:52.282Z,64.4
2019-04-24T20:06:51.858Z,64.5
2019-04-24T20:08:51.609Z,64.6
2019-04-24T20:10:51.587Z,64.7
2019-04-24T20:12:50.607Z,64.6
2019-04-24T20:14:50.603Z,64.5
2019-04-24T20:16:51.391Z,64.3
2019-04-24T20:18:52.471Z,64.3
2019-04-24T20:20:50.461Z,61.9
2019-04-24T20:22:53.692Z,61.4
2019-04-24T20:24:49.837Z,61.0
2019-04-24T20:26:50.157Z,60.4
2019-04-24T20:28:50.178Z,59.9
2019-04-24T20:30:52.065Z,59.0
2019-04-24T20:32:51.869Z,58.7
2019-04-24T20:34:51.947Z,58.2
2019-04-24T20:36:51.692Z,58.1
2019-04-24T20:38:49.808Z,58.1
2019-04-24T20:40:49.965Z,58.2
2019-04-24T20:42:50.040Z,58.2
2019-04-24T20:44:52.901Z,58.4
2019-04-24T20:46:51.903Z,58.3
2019-04-24T20:48:51.635Z,58.4
2019-04-24T20:50:49.792Z,58.8
2019-04-24T20:52:51.618Z,59.2
2019-04-24T20:54:50.754Z,59.7
2019-04-24T20:56:51.552Z,59.5
2019-04-24T20:58:52.397Z,60.6
2019-04-24T21:00:50.451Z,60.1
2019-04-24T21:02:50.597Z,59.1
2019-04-24T21:04:50.016Z,58.8
2019-04-24T21:06:51.732Z,58.2
2019-04-24T21:08:49.905Z,58.2
2019-04-24T21:10:49.943Z,58.1
2019-04-24T21:12:51.760Z,57.9
2019-04-24T21:14:50.712Z,57.6
2019-04-24T21:16:49.888Z,57.7
2019-04-24T21:18:49.933Z,57.9
2019-04-24T21:20:49.940Z,57.9
2019-04-24T21:22:53.431Z,57.6
2019-04-24T21:24:51.832Z,57.6
2019-04-24T21:26:51.844Z,57.1
2019-04-24T21:28:51.619Z,56.7
2019-04-24T21:30:50.797Z,56.7
2019-04-24T21:32:49.808Z,56.3
2019-04-24T21:34:50.156Z,56.5
2019-04-24T21:36:50.303Z,57.0
2019-04-24T21:38:50.424Z,56.5
2019-04-24T21:40:52.312Z,56.6
2019-04-24T21:42:51.988Z,56.7
2019-04-24T21:44:50.030Z,57.3
2019-04-24T21:46:50.083Z,57.5
2019-04-24T21:48:51.980Z,57.8
2019-04-24T21:50:50.048Z,57.7
2019-04-24T21:52:50.037Z,57.6
2019-04-24T21:54:51.623Z,58.4
2019-04-24T21:56:51.726Z,58.3
2019-04-24T21:58:50.752Z,58.2
2019-04-24T22:00:51.875Z,58.5
2019-04-24T22:02:49.905Z,59.0
2019-04-24T22:04:53.369Z,58.9
2019-04-24T22:06:52.245Z,58.3
2019-04-24T22:08:53.185Z,59.7
2019-04-24T22:10:51.750Z,59.4
2019-04-24T22:12:49.826Z,59.5
2019-04-24T22:14:49.811Z,59.1
2019-04-24T22:16:50.009Z,59.2
2019-04-24T22:18:50.071Z,59.8
2019-04-24T22:20:51.986Z,59.9
2019-04-24T22:22:58.408Z,60.6
2019-04-24T22:24:52.286Z,62.7
2019-04-24T22:26:52.351Z,61.3
2019-04-24T22:28:52.207Z,61.5
2019-04-24T22:30:50.340Z,61.8
2019-04-24T22:32:50.405Z,61.7
2019-04-24T22:34:49.874Z,62.6
2019-04-24T22:36:50.091Z,63.2
2019-04-24T22:38:51.732Z,63.0
2019-04-24T22:40:52.720Z,63.5
2019-04-24T22:42:49.962Z,63.5
2019-04-24T22:44:49.897Z,63.4
2019-04-24T22:46:50.120Z,64.8
2019-04-24T22:48:53.739Z,64.3
2019-04-24T22:50:49.878Z,63.1
2019-04-24T22:52:51.867Z,63.0
2019-04-24T22:54:49.994Z,62.9
2019-04-24T22:56:59.540Z,63.0
2019-04-24T22:58:50.500Z,63.3
2019-04-24T23:00:50.593Z,63.5
2019-04-24T23:02:52.484Z,62.7
2019-04-24T23:04:51.499Z,63.8
2019-04-24T23:06:51.865Z,64.2
2019-04-24T23:08:49.954Z,64.5
2019-04-24T23:10:50.068Z,64.0
2019-04-24T23:12:50.165Z,63.5
2019-04-24T23:14:50.335Z,63.8
2019-04-24T23:16:52.264Z,64.7
2019-04-24T23:18:52.270Z,65.2
2019-04-24T23:20:50.316Z,65.4
2019-04-24T23:22:50.391Z,65.9
2019-04-24T23:24:57.394Z,66.1
2019-04-24T23:26:54.000Z,66.6
2019-04-24T23:28:49.980Z,66.2
2019-04-24T23:30:53.409Z,66.1
2019-04-24T23:32:51.675Z,65.3
2019-04-24T23:34:51.686Z,65.3
2019-04-24T23:36:49.801Z,65.0
2019-04-24T23:38:49.819Z,65.3
2019-04-24T23:40:49.792Z,64.7
2019-04-24T23:42:49.952Z,64.6
2019-04-24T23:44:50.047Z,64.6
2019-04-24T23:46:51.937Z,64.6
2019-04-24T23:48:49.958Z,64.0
2019-04-24T23:50:50.054Z,64.7
2019-04-24T23:52:51.842Z,65.2
2019-04-24T23:55:07.763Z,65.1
2019-04-24T23:56:52.151Z,65.3
2019-04-24T23:58:50.160Z,65.2
